createdAt,value
2017-06-23T00:02:04.786Z,24.20
2017-06-23T00:04:32.324Z,24.20
2017-06-23T00:06:59.885Z,24.10
2017-06-23T00:09:27.421Z,24.10
2017-06-23T00:11:54.950Z,24.00
2017-06-23T00:14:23.261Z,23.90
2017-06-23T00:16:50.791Z,23.90
2017-06-23T00:19:19.099Z,23.80
2017-06-23T00:21:46.640Z,23.80
2017-06-23T00:24:14.211Z,23.80
2017-06-23T00:26:41.742Z,23.70
2017-06-23T00:29:10.038Z,23.50
2017-06-23T00:31:37.587Z,23.50
2017-06-23T00:34:05.136Z,23.40
2017-06-23T00:36:33.452Z,23.20
2017-06-23T00:39:00.990Z,23.20
2017-06-23T00:41:28.538Z,23.10
2017-06-23T00:43:56.070Z,23.00
2017-06-23T00:46:23.689Z,23.00
2017-06-23T00:48:51.235Z,23.00
2017-06-23T00:51:18.912Z,22.90
2017-06-23T00:53:46.462Z,22.80
2017-06-23T00:56:13.994Z,22.80
2017-06-23T00:58:42.408Z,22.70
2017-06-23T01:01:09.939Z,22.70
2017-06-23T01:03:37.466Z,22.70
2017-06-23T01:06:05.025Z,22.70
2017-06-23T01:08:32.551Z,22.60
2017-06-23T01:11:00.102Z,22.50
2017-06-23T01:13:27.629Z,22.50
2017-06-23T01:15:55.190Z,22.40
2017-06-23T01:18:22.722Z,22.40
2017-06-23T01:20:50.258Z,22.40
2017-06-23T01:23:17.817Z,22.50
2017-06-23T01:25:45.347Z,22.50
2017-06-23T01:28:12.898Z,22.50
2017-06-23T01:30:40.433Z,22.50
2017-06-23T01:33:09.755Z,22.50
2017-06-23T01:35:37.288Z,22.50
2017-06-23T01:38:05.688Z,22.30
2017-06-23T01:40:33.245Z,22.30
2017-06-23T01:43:00.799Z,22.20
2017-06-23T01:45:28.331Z,22.10
2017-06-23T01:47:55.901Z,22.00
2017-06-23T01:50:24.198Z,22.00
2017-06-23T01:52:51.733Z,22.00
2017-06-23T01:55:20.049Z,21.90
2017-06-23T01:57:47.582Z,21.90
2017-06-23T02:00:15.902Z,21.90
2017-06-23T02:02:43.442Z,21.80
2017-06-23T02:05:10.998Z,21.80
2017-06-23T02:07:38.541Z,21.80
2017-06-23T02:10:06.090Z,21.70
2017-06-23T02:12:34.390Z,21.60
2017-06-23T02:15:01.966Z,21.60
2017-06-23T02:17:29.499Z,21.60
2017-06-23T02:19:57.043Z,21.50
2017-06-23T02:22:25.359Z,21.30
2017-06-23T02:24:52.889Z,21.30
2017-06-23T02:27:20.438Z,21.30
2017-06-23T02:29:48.742Z,21.30
2017-06-23T02:32:16.338Z,21.30
2017-06-23T02:34:43.889Z,21.30
2017-06-23T02:37:11.447Z,21.30
2017-06-23T02:39:38.973Z,21.30
2017-06-23T02:42:06.511Z,21.20
2017-06-23T02:44:34.976Z,21.20
2017-06-23T02:47:02.507Z,21.10
2017-06-23T02:49:30.060Z,21.10
2017-06-23T02:51:57.594Z,21.20
2017-06-23T02:54:25.147Z,21.30
2017-06-23T02:56:52.678Z,21.30
2017-06-23T02:59:21.008Z,21.40
2017-06-23T03:01:48.534Z,21.40
2017-06-23T03:04:16.079Z,21.40
2017-06-23T03:06:44.391Z,21.30
2017-06-23T03:09:11.957Z,21.30
2017-06-23T03:11:39.535Z,21.30
2017-06-23T03:14:07.058Z,21.20
2017-06-23T03:16:34.610Z,21.10
2017-06-23T03:19:02.151Z,21.10
2017-06-23T03:21:30.468Z,21.10
2017-06-23T03:23:57.997Z,21.10
2017-06-23T03:26:26.314Z,21.10
2017-06-23T03:28:53.845Z,21.00
2017-06-23T03:31:21.406Z,21.10
2017-06-23T03:33:48.937Z,21.00
2017-06-23T03:36:17.278Z,21.00
2017-06-23T03:38:44.806Z,21.00
2017-06-23T03:41:12.342Z,21.00
2017-06-23T03:43:40.727Z,20.90
2017-06-23T03:46:08.324Z,20.90
2017-06-23T03:48:35.879Z,20.90
2017-06-23T03:51:03.427Z,20.90
2017-06-23T03:53:30.973Z,20.90
2017-06-23T03:55:58.501Z,20.90
2017-06-23T03:58:26.847Z,20.90
2017-06-23T04:00:54.391Z,20.80
2017-06-23T04:03:21.925Z,20.90
2017-06-23T04:05:49.482Z,21.00
2017-06-23T04:08:17.022Z,21.10
2017-06-23T04:10:44.578Z,21.20
2017-06-23T04:13:12.897Z,22.00
2017-06-23T04:15:40.461Z,22.00
2017-06-23T04:18:07.991Z,22.50
2017-06-23T04:20:35.546Z,22.80
2017-06-23T04:23:03.085Z,23.00
2017-06-23T04:25:30.609Z,23.20
2017-06-23T04:27:58.174Z,23.60
2017-06-23T04:30:25.706Z,25.10
2017-06-23T04:32:53.270Z,26.40
2017-06-23T04:35:20.806Z,27.70
2017-06-23T04:37:48.392Z,28.80
2017-06-23T04:40:15.927Z,29.70
2017-06-23T04:42:43.481Z,30.50
2017-06-23T04:45:11.012Z,30.50
2017-06-23T04:47:38.541Z,30.20
2017-06-23T04:50:06.101Z,30.70
2017-06-23T04:52:33.630Z,31.20
2017-06-23T04:55:01.186Z,32.10
2017-06-23T04:57:28.751Z,33.40
2017-06-23T04:59:56.299Z,34.50
2017-06-23T05:02:23.827Z,35.50
2017-06-23T05:04:51.382Z,36.40
2017-06-23T05:07:18.906Z,35.80
2017-06-23T05:09:46.462Z,34.70
2017-06-23T05:12:14.927Z,32.50
2017-06-23T05:14:42.445Z,30.30
2017-06-23T05:17:09.989Z,28.70
2017-06-23T05:19:37.522Z,28.00
2017-06-23T05:22:05.078Z,28.40
2017-06-23T05:24:32.605Z,30.00
2017-06-23T05:27:00.149Z,32.30
2017-06-23T05:29:28.486Z,35.60
2017-06-23T05:31:56.026Z,35.50
2017-06-23T05:34:23.583Z,36.80
2017-06-23T05:36:51.106Z,37.00
2017-06-23T05:39:19.406Z,37.20
2017-06-23T05:41:46.952Z,37.20
2017-06-23T05:44:14.487Z,37.90
2017-06-23T05:46:42.802Z,38.40
2017-06-23T05:49:10.330Z,38.40
2017-06-23T05:51:38.650Z,37.60
2017-06-23T05:54:06.182Z,37.60
2017-06-23T05:56:33.746Z,38.00
2017-06-23T05:59:01.279Z,38.60
2017-06-23T06:01:29.582Z,39.00
2017-06-23T06:03:57.123Z,39.00
2017-06-23T06:06:26.375Z,40.50
2017-06-23T06:08:54.289Z,40.40
2017-06-23T06:11:23.187Z,39.30
2017-06-23T06:13:51.502Z,38.90
2017-06-23T06:16:19.055Z,38.90
2017-06-23T06:18:46.617Z,39.70
2017-06-23T06:21:14.149Z,40.40
2017-06-23T06:23:41.686Z,39.90
2017-06-23T06:26:10.026Z,39.10
2017-06-23T06:28:37.552Z,39.00
2017-06-23T06:31:05.093Z,39.60
2017-06-23T06:33:33.388Z,39.20
2017-06-23T06:36:01.794Z,39.20
2017-06-23T06:38:29.319Z,40.40
2017-06-23T06:40:56.903Z,40.10
2017-06-23T06:43:24.479Z,39.10
2017-06-23T06:45:52.007Z,39.70
2017-06-23T06:48:19.550Z,39.60
2017-06-23T06:50:47.076Z,38.20
2017-06-23T06:53:14.638Z,37.40
2017-06-23T06:55:42.166Z,36.40
2017-06-23T06:58:09.710Z,36.00
2017-06-23T07:00:37.234Z,36.70
2017-06-23T07:03:05.542Z,35.30
2017-06-23T07:05:33.071Z,35.30
2017-06-23T07:08:00.648Z,34.60
2017-06-23T07:10:28.194Z,33.70
2017-06-23T07:12:56.490Z,32.40
2017-06-23T07:15:24.038Z,32.40
2017-06-23T07:17:51.571Z,31.80
2017-06-23T07:20:19.895Z,30.80
2017-06-23T07:22:47.436Z,30.80
2017-06-23T07:25:14.999Z,30.20
2017-06-23T07:27:42.521Z,29.60
2017-06-23T07:30:10.070Z,29.00
2017-06-23T07:32:37.602Z,29.00
2017-06-23T07:35:05.955Z,29.00
2017-06-23T07:37:33.483Z,28.90
2017-06-23T07:40:01.018Z,28.90
2017-06-23T07:42:28.568Z,29.50
2017-06-23T07:44:56.102Z,30.30
2017-06-23T07:47:23.653Z,30.80
2017-06-23T07:49:51.185Z,31.00
2017-06-23T07:52:18.727Z,31.10
2017-06-23T07:54:46.273Z,31.00
2017-06-23T07:57:13.823Z,31.70
2017-06-23T07:59:41.369Z,32.10
2017-06-23T08:02:10.711Z,31.40
2017-06-23T08:04:38.495Z,31.40
2017-06-23T08:07:06.092Z,31.70
2017-06-23T08:09:34.408Z,33.40
2017-06-23T08:12:01.975Z,33.40
2017-06-23T08:14:29.555Z,33.80
2017-06-23T08:16:57.156Z,33.30
2017-06-23T08:19:24.729Z,32.80
2017-06-23T08:21:53.063Z,31.80
2017-06-23T08:24:20.666Z,31.80
2017-06-23T08:26:48.230Z,31.60
2017-06-23T08:29:15.777Z,31.20
2017-06-23T08:31:43.401Z,30.90
2017-06-23T08:34:10.965Z,31.00
2017-06-23T08:36:38.565Z,31.20
2017-06-23T08:39:06.124Z,31.40
2017-06-23T08:41:33.699Z,31.60
2017-06-23T08:44:01.351Z,31.60
2017-06-23T08:46:28.901Z,31.80
2017-06-23T08:48:56.451Z,32.30
2017-06-23T08:51:24.786Z,32.80
2017-06-23T08:53:52.358Z,32.70
2017-06-23T08:56:19.952Z,32.30
2017-06-23T08:58:48.306Z,32.30
2017-06-23T09:01:15.892Z,32.20
2017-06-23T09:03:43.457Z,31.70
2017-06-23T09:06:11.049Z,31.10
2017-06-23T09:08:38.653Z,31.00
2017-06-23T09:11:06.282Z,31.60
2017-06-23T09:13:34.386Z,31.70
2017-06-23T09:16:02.016Z,31.70
2017-06-23T09:18:29.611Z,31.10
2017-06-23T09:20:57.167Z,31.40
2017-06-23T09:23:24.758Z,31.90
2017-06-23T09:25:52.367Z,32.20
2017-06-23T09:28:19.938Z,32.30
2017-06-23T09:30:49.514Z,32.10
2017-06-23T09:33:17.097Z,31.80
2017-06-23T09:35:44.642Z,32.40
2017-06-23T09:38:12.210Z,32.70
2017-06-23T09:40:40.335Z,32.50
2017-06-23T09:43:08.776Z,32.10
2017-06-23T09:45:37.279Z,32.10
2017-06-23T09:48:04.870Z,31.90
2017-06-23T09:50:32.499Z,31.60
2017-06-23T09:53:00.118Z,31.30
2017-06-23T09:55:27.676Z,31.20
2017-06-23T09:57:55.255Z,31.10
2017-06-23T10:00:22.833Z,30.60
2017-06-23T10:02:50.432Z,31.20
2017-06-23T10:05:18.017Z,31.70
2017-06-23T10:07:45.604Z,31.90
2017-06-23T10:10:13.175Z,32.50
2017-06-23T10:12:40.744Z,32.80
2017-06-23T10:15:08.379Z,33.10
2017-06-23T10:17:35.965Z,33.20
2017-06-23T10:20:03.583Z,32.70
2017-06-23T10:22:31.173Z,32.40
2017-06-23T10:24:58.730Z,31.80
2017-06-23T10:27:27.091Z,31.40
2017-06-23T10:29:54.650Z,31.40
2017-06-23T10:32:22.225Z,31.40
2017-06-23T10:34:49.820Z,31.80
2017-06-23T10:37:18.169Z,32.80
2017-06-23T10:39:46.143Z,32.80
2017-06-23T10:42:13.746Z,33.00
2017-06-23T10:44:41.574Z,33.10
2017-06-23T10:47:09.605Z,32.40
2017-06-23T10:49:37.140Z,31.90
2017-06-23T10:52:04.711Z,31.90
2017-06-23T10:54:32.311Z,32.10
2017-06-23T10:56:59.875Z,32.10
2017-06-23T10:59:27.494Z,31.80
2017-06-23T11:01:55.827Z,31.70
2017-06-23T11:04:23.882Z,31.30
2017-06-23T11:06:52.203Z,31.60
2017-06-23T11:09:19.791Z,31.60
2017-06-23T11:11:47.363Z,32.00
2017-06-23T11:14:14.923Z,32.30
2017-06-23T11:16:42.482Z,32.30
2017-06-23T11:19:10.034Z,32.30
2017-06-23T11:21:37.603Z,32.70
2017-06-23T11:24:05.181Z,32.70
2017-06-23T11:26:32.749Z,32.90
2017-06-23T11:29:00.375Z,33.10
2017-06-23T11:31:28.006Z,33.00
2017-06-23T11:33:56.340Z,31.70
2017-06-23T11:36:23.958Z,31.70
2017-06-23T11:38:51.543Z,32.00
2017-06-23T11:41:19.120Z,31.50
2017-06-23T11:43:46.695Z,31.50
2017-06-23T11:46:14.265Z,31.80
2017-06-23T11:48:42.775Z,31.80
2017-06-23T11:51:10.419Z,32.10
2017-06-23T11:53:38.046Z,32.00
2017-06-23T11:56:06.471Z,32.00
2017-06-23T11:58:34.117Z,32.00
2017-06-23T12:01:01.721Z,31.70
2017-06-23T12:03:29.290Z,31.30
2017-06-23T12:05:56.954Z,31.20
2017-06-23T12:08:24.680Z,31.10
2017-06-23T12:10:52.287Z,31.10
2017-06-23T12:13:19.852Z,31.90
2017-06-23T12:15:47.483Z,32.20
2017-06-23T12:18:15.033Z,32.10
2017-06-23T12:20:43.483Z,32.20
2017-06-23T12:23:12.858Z,32.30
2017-06-23T12:25:40.471Z,32.60
2017-06-23T12:28:08.805Z,33.80
2017-06-23T12:30:36.448Z,33.80
2017-06-23T12:33:04.819Z,33.80
2017-06-23T12:35:32.387Z,33.50
2017-06-23T12:38:00.010Z,33.20
2017-06-23T12:40:27.597Z,33.50
2017-06-23T12:42:55.188Z,33.50
2017-06-23T12:45:22.791Z,33.30
2017-06-23T12:47:50.401Z,33.70
2017-06-23T12:50:18.833Z,34.20
2017-06-23T12:52:46.429Z,34.20
2017-06-23T12:55:14.074Z,33.80
2017-06-23T12:57:41.662Z,33.50
2017-06-23T13:00:09.258Z,33.00
2017-06-23T13:02:36.839Z,33.20
2017-06-23T13:05:04.481Z,33.00
2017-06-23T13:07:32.101Z,33.20
2017-06-23T13:09:59.722Z,33.10
2017-06-23T13:12:27.355Z,33.20
2017-06-23T13:14:54.939Z,33.50
2017-06-23T13:17:23.292Z,33.40
2017-06-23T13:19:50.880Z,33.40
2017-06-23T13:22:19.282Z,33.50
2017-06-23T13:24:47.691Z,34.20
2017-06-23T13:27:15.289Z,34.20
2017-06-23T13:29:42.859Z,33.60
2017-06-23T13:32:10.419Z,33.10
2017-06-23T13:34:38.026Z,32.80
2017-06-23T13:37:05.567Z,32.40
2017-06-23T13:39:33.128Z,32.00
2017-06-23T13:42:00.693Z,32.10
2017-06-23T13:44:28.287Z,32.50
2017-06-23T13:46:56.596Z,33.30
2017-06-23T13:49:24.195Z,33.20
2017-06-23T13:51:51.735Z,33.80
2017-06-23T13:54:19.280Z,33.80
2017-06-23T13:56:46.868Z,33.50
2017-06-23T13:59:14.420Z,33.60
2017-06-23T14:01:42.028Z,33.90
2017-06-23T14:04:09.598Z,33.50
2017-06-23T14:06:37.188Z,33.40
2017-06-23T14:09:04.787Z,33.70
2017-06-23T14:11:32.359Z,33.80
2017-06-23T14:13:59.909Z,33.50
2017-06-23T14:16:27.509Z,33.40
2017-06-23T14:18:55.061Z,33.40
2017-06-23T14:21:22.600Z,33.20
2017-06-23T14:23:50.189Z,33.10
2017-06-23T14:26:17.714Z,33.10
2017-06-23T14:28:45.298Z,32.70
2017-06-23T14:31:12.845Z,32.50
2017-06-23T14:33:40.410Z,32.80
2017-06-23T14:36:08.738Z,33.30
2017-06-23T14:38:36.309Z,33.20
2017-06-23T14:41:03.866Z,33.60
2017-06-23T14:43:31.443Z,33.30
2017-06-23T14:45:58.991Z,33.10
2017-06-23T14:48:26.546Z,32.90
2017-06-23T14:50:54.122Z,32.80
2017-06-23T14:53:21.689Z,32.50
2017-06-23T14:55:49.278Z,32.70
2017-06-23T14:58:16.800Z,32.30
2017-06-23T15:00:44.391Z,32.20
2017-06-23T15:03:11.919Z,32.50
2017-06-23T15:05:39.479Z,32.40
2017-06-23T15:08:07.008Z,32.50
2017-06-23T15:10:35.293Z,32.40
2017-06-23T15:13:03.603Z,32.20
2017-06-23T15:15:31.145Z,32.20
2017-06-23T15:17:58.686Z,32.40
2017-06-23T15:20:26.993Z,31.80
2017-06-23T15:22:54.537Z,31.80
2017-06-23T15:25:22.060Z,31.80
2017-06-23T15:27:49.681Z,31.80
2017-06-23T15:30:17.198Z,31.60
2017-06-23T15:32:45.488Z,31.10
2017-06-23T15:35:13.040Z,31.10
2017-06-23T15:37:41.337Z,30.90
2017-06-23T15:40:08.886Z,30.90
2017-06-23T15:42:36.421Z,31.00
2017-06-23T15:45:04.743Z,31.00
2017-06-23T15:47:32.262Z,31.00
2017-06-23T15:50:00.683Z,30.90
2017-06-23T15:52:28.207Z,30.80
2017-06-23T15:54:56.542Z,30.70
2017-06-23T15:57:24.077Z,30.70
2017-06-23T15:59:51.594Z,30.60
2017-06-23T16:02:19.910Z,30.50
2017-06-23T16:04:47.433Z,30.50
2017-06-23T16:07:14.985Z,30.30
2017-06-23T16:09:42.518Z,30.20
2017-06-23T16:12:10.057Z,29.90
2017-06-23T16:14:37.590Z,29.70
2017-06-23T16:17:05.139Z,29.60
2017-06-23T16:19:32.675Z,29.70
2017-06-23T16:22:01.890Z,29.90
2017-06-23T16:24:29.423Z,29.90
2017-06-23T16:26:56.983Z,30.00
2017-06-23T16:29:24.506Z,30.20
2017-06-23T16:31:52.030Z,30.40
2017-06-23T16:34:19.642Z,30.50
2017-06-23T16:36:47.172Z,30.50
2017-06-23T16:39:14.714Z,30.70
2017-06-23T16:41:42.238Z,30.60
2017-06-23T16:44:09.802Z,30.80
2017-06-23T16:46:38.101Z,30.60
2017-06-23T16:49:05.645Z,30.50
2017-06-23T16:51:33.938Z,29.50
2017-06-23T16:54:01.502Z,29.50
2017-06-23T16:56:29.031Z,29.20
2017-06-23T16:58:57.325Z,28.70
2017-06-23T17:01:25.643Z,28.40
2017-06-23T17:03:53.186Z,28.30
2017-06-23T17:06:20.751Z,28.30
2017-06-23T17:08:48.325Z,28.20
2017-06-23T17:11:15.863Z,28.20
2017-06-23T17:13:43.387Z,28.30
2017-06-23T17:16:11.710Z,28.60
2017-06-23T17:18:39.234Z,28.60
2017-06-23T17:21:06.757Z,28.60
2017-06-23T17:23:35.130Z,28.70
2017-06-23T17:26:02.670Z,28.80
2017-06-23T17:28:30.232Z,28.80
2017-06-23T17:30:57.758Z,28.90
2017-06-23T17:33:25.310Z,28.70
2017-06-23T17:35:52.840Z,28.60
2017-06-23T17:38:20.406Z,28.60
2017-06-23T17:40:49.045Z,28.40
2017-06-23T17:43:16.567Z,28.30
2017-06-23T17:45:44.111Z,28.10
2017-06-23T17:48:12.407Z,27.80
2017-06-23T17:50:39.958Z,27.80
2017-06-23T17:53:07.490Z,27.60
2017-06-23T17:55:35.062Z,27.50
2017-06-23T17:58:03.356Z,27.30
2017-06-23T18:00:30.918Z,27.30
2017-06-23T18:02:58.453Z,27.10
2017-06-23T18:05:26.746Z,26.90
2017-06-23T18:07:54.295Z,26.80
2017-06-23T18:10:22.584Z,26.60
2017-06-23T18:12:50.132Z,26.60
2017-06-23T18:15:17.650Z,26.50
2017-06-23T18:17:45.198Z,26.40
2017-06-23T18:20:12.721Z,26.30
2017-06-23T18:22:40.266Z,26.20
2017-06-23T18:25:07.797Z,26.20
2017-06-23T18:27:35.351Z,26.10
2017-06-23T18:30:02.982Z,26.00
2017-06-23T18:32:30.522Z,25.90
2017-06-23T18:34:58.098Z,25.70
2017-06-23T18:37:25.636Z,25.60
2017-06-23T18:39:53.198Z,25.50
2017-06-23T18:42:20.721Z,25.40
2017-06-23T18:44:49.053Z,25.10
2017-06-23T18:47:16.587Z,25.10
2017-06-23T18:49:44.138Z,25.00
2017-06-23T18:52:12.444Z,24.80
2017-06-23T18:54:40.063Z,24.80
2017-06-23T18:57:07.682Z,24.70
2017-06-23T18:59:35.226Z,24.50
2017-06-23T19:02:02.766Z,24.40
2017-06-23T19:04:30.336Z,24.40
2017-06-23T19:06:57.935Z,24.30
2017-06-23T19:09:25.457Z,24.20
2017-06-23T19:11:53.043Z,24.10
2017-06-23T19:14:20.582Z,24.00
2017-06-23T19:16:48.158Z,23.90
2017-06-23T19:19:15.730Z,23.80
2017-06-23T19:21:44.103Z,23.50
2017-06-23T19:24:11.667Z,23.50
2017-06-23T19:26:39.202Z,23.40
2017-06-23T19:29:06.743Z,23.30
2017-06-23T19:31:34.286Z,23.20
2017-06-23T19:34:01.846Z,23.00
2017-06-23T19:36:29.381Z,22.90
2017-06-23T19:38:57.677Z,22.70
2017-06-23T19:41:25.226Z,22.70
2017-06-23T19:43:53.547Z,22.30
2017-06-23T19:46:21.102Z,22.30
2017-06-23T19:48:48.754Z,22.10
2017-06-23T19:51:16.322Z,21.90
2017-06-23T19:53:43.849Z,21.80
2017-06-23T19:56:11.383Z,21.80
2017-06-23T19:58:38.930Z,21.90
2017-06-23T20:01:06.451Z,21.90
2017-06-23T20:03:34.005Z,21.90
2017-06-23T20:06:01.528Z,21.90
2017-06-23T20:08:29.075Z,21.80
2017-06-23T20:10:57.722Z,21.90
2017-06-23T20:13:25.265Z,21.90
2017-06-23T20:15:52.787Z,21.80
2017-06-23T20:18:21.122Z,21.70
2017-06-23T20:20:48.646Z,21.70
2017-06-23T20:23:16.174Z,21.60
2017-06-23T20:25:44.487Z,21.40
2017-06-23T20:28:12.026Z,21.40
2017-06-23T20:30:40.334Z,21.40
2017-06-23T20:33:07.899Z,21.40
2017-06-23T20:35:35.458Z,21.40
2017-06-23T20:38:03.007Z,21.30
2017-06-23T20:40:30.549Z,21.10
2017-06-23T20:42:58.083Z,21.10
2017-06-23T20:45:25.632Z,21.00
2017-06-23T20:47:53.155Z,20.90
2017-06-23T20:50:20.677Z,20.70
2017-06-23T20:52:48.991Z,20.50
2017-06-23T20:55:16.519Z,20.50
2017-06-23T20:57:44.066Z,20.40
2017-06-23T21:00:11.586Z,20.40
2017-06-23T21:02:39.135Z,20.40
2017-06-23T21:05:06.665Z,20.30
2017-06-23T21:07:34.210Z,20.30
2017-06-23T21:10:01.734Z,20.20
2017-06-23T21:12:29.282Z,20.20
2017-06-23T21:14:56.810Z,20.20
2017-06-23T21:17:24.359Z,20.20
2017-06-23T21:19:51.905Z,20.20
2017-06-23T21:22:19.439Z,20.20
2017-06-23T21:24:47.755Z,20.10
2017-06-23T21:27:15.279Z,20.10
2017-06-23T21:29:43.597Z,19.90
2017-06-23T21:32:11.119Z,19.90
2017-06-23T21:34:38.697Z,19.90
2017-06-23T21:37:06.228Z,19.90
2017-06-23T21:39:34.558Z,19.70
2017-06-23T21:42:02.095Z,19.70
2017-06-23T21:44:29.618Z,19.70
2017-06-23T21:46:57.178Z,19.70
2017-06-23T21:49:24.709Z,19.60
2017-06-23T21:51:52.265Z,19.50
2017-06-23T21:54:19.829Z,19.50
2017-06-23T21:56:47.382Z,19.40
2017-06-23T21:59:14.906Z,19.40
2017-06-23T22:01:42.438Z,19.40
2017-06-23T22:04:10.765Z,19.20
2017-06-23T22:06:38.286Z,19.20
2017-06-23T22:09:05.845Z,19.10
2017-06-23T22:11:34.153Z,19.10
2017-06-23T22:14:01.698Z,19.10
2017-06-23T22:16:29.232Z,19.00
2017-06-23T22:18:57.552Z,18.90
2017-06-23T22:21:25.076Z,18.90
2017-06-23T22:23:52.626Z,18.80
2017-06-23T22:26:20.929Z,18.60
2017-06-23T22:28:48.470Z,18.60
2017-06-23T22:31:16.028Z,18.60
2017-06-23T22:33:44.341Z,18.40
2017-06-23T22:36:11.881Z,18.40
2017-06-23T22:38:39.452Z,18.30
2017-06-23T22:41:07.029Z,18.30
2017-06-23T22:43:34.714Z,18.20
2017-06-23T22:46:06.438Z,18.10
2017-06-23T22:48:33.963Z,18.10
2017-06-23T22:51:01.556Z,18.00
2017-06-23T22:53:29.114Z,18.00
2017-06-23T22:55:56.700Z,17.90
2017-06-23T22:58:24.332Z,17.80
2017-06-23T23:00:51.861Z,17.70
2017-06-23T23:03:19.401Z,17.60
2017-06-23T23:05:47.699Z,17.50
2017-06-23T23:08:15.271Z,17.50
2017-06-23T23:10:42.798Z,17.40
2017-06-23T23:13:11.091Z,17.30
2017-06-23T23:15:38.642Z,17.30
2017-06-23T23:18:06.939Z,17.30
2017-06-23T23:20:34.492Z,17.30
2017-06-23T23:23:02.028Z,17.30
2017-06-23T23:25:30.342Z,17.20
2017-06-23T23:27:57.870Z,17.20
2017-06-23T23:30:26.181Z,17.30
2017-06-23T23:32:53.698Z,17.20
2017-06-23T23:35:21.988Z,17.20
2017-06-23T23:37:49.556Z,17.10
2017-06-23T23:40:17.107Z,17.10
2017-06-23T23:42:44.714Z,17.10
2017-06-23T23:45:12.246Z,17.00
2017-06-23T23:47:39.815Z,16.90
2017-06-23T23:50:07.339Z,16.80
2017-06-23T23:52:34.907Z,16.90
2017-06-23T23:55:02.446Z,16.90
2017-06-23T23:57:30.753Z,16.90
2017-06-23T23:59:58.306Z,16.90
